sensor_id;sensor_type;location;lat;lon;timestamp;P1;durP1;ratioP1;P2;durP2;ratioP2
54452;SDS011;40363;52.270;10.546;2024-02-26T00:00:25;4.80;;;2.00;;
54452;SDS011;40363;52.270;10.546;2024-02-26T00:02:53;2.53;;;1.98;;
54452;SDS011;40363;52.270;10.546;2024-02-26T00:05:19;3.90;;;2.35;;
54452;SDS011;40363;52.270;10.546;2024-02-26T00:07:46;4.13;;;2.00;;
54452;SDS011;40363;52.270;10.546;2024-02-26T00:10:13;2.80;;;2.05;;
54452;SDS011;40363;52.270;10.546;2024-02-26T00:12:40;2.65;;;1.92;;
54452;SDS011;40363;52.270;10.546;2024-02-26T00:15:08;3.05;;;2.05;;
54452;SDS011;40363;52.270;10.546;2024-02-26T00:17:35;4.72;;;2.60;;
54452;SDS011;40363;52.270;10.546;2024-02-26T00:20:03;3.08;;;2.55;;
54452;SDS011;40363;52.270;10.546;2024-02-26T00:22:33;3.95;;;2.30;;
54452;SDS011;40363;52.270;10.546;2024-02-26T00:25:00;4.03;;;2.20;;
54452;SDS011;40363;52.270;10.546;2024-02-26T00:27:26;3.78;;;2.70;;
54452;SDS011;40363;52.270;10.546;2024-02-26T00:29:53;3.35;;;2.05;;
54452;SDS011;40363;52.270;10.546;2024-02-26T00:32:19;3.42;;;2.22;;
54452;SDS011;40363;52.270;10.546;2024-02-26T00:34:46;4.28;;;2.33;;
54452;SDS011;40363;52.270;10.546;2024-02-26T00:37:14;3.85;;;2.50;;
54452;SDS011;40363;52.270;10.546;2024-02-26T00:39:40;4.30;;;2.60;;
54452;SDS011;40363;52.270;10.546;2024-02-26T00:42:07;3.22;;;2.00;;
54452;SDS011;40363;52.270;10.546;2024-02-26T00:44:34;2.78;;;1.88;;
54452;SDS011;40363;52.270;10.546;2024-02-26T00:47:00;2.65;;;2.03;;
54452;SDS011;40363;52.270;10.546;2024-02-26T00:49:27;3.75;;;2.00;;
54452;SDS011;40363;52.270;10.546;2024-02-26T00:51:53;3.30;;;2.17;;
54452;SDS011;40363;52.270;10.546;2024-02-26T00:54:22;3.95;;;2.30;;
54452;SDS011;40363;52.270;10.546;2024-02-26T00:56:48;3.95;;;2.20;;
54452;SDS011;40363;52.270;10.546;2024-02-26T00:59:15;4.20;;;2.80;;
54452;SDS011;40363;52.270;10.546;2024-02-26T01:01:42;3.92;;;2.65;;
54452;SDS011;40363;52.270;10.546;2024-02-26T01:04:08;4.45;;;2.42;;
54452;SDS011;40363;52.270;10.546;2024-02-26T01:06:35;6.03;;;3.92;;
54452;SDS011;40363;52.270;10.546;2024-02-26T01:09:01;2.70;;;2.47;;
54452;SDS011;40363;52.270;10.546;2024-02-26T01:11:30;4.13;;;2.60;;
54452;SDS011;40363;52.270;10.546;2024-02-26T01:13:56;3.40;;;2.10;;
54452;SDS011;40363;52.270;10.546;2024-02-26T01:16:23;5.07;;;1.80;;
54452;SDS011;40363;52.270;10.546;2024-02-26T01:18:50;3.67;;;2.65;;
54452;SDS011;40363;52.270;10.546;2024-02-26T01:21:16;2.50;;;1.92;;
54452;SDS011;40363;52.270;10.546;2024-02-26T01:23:43;4.53;;;2.03;;
54452;SDS011;40363;52.270;10.546;2024-02-26T01:26:10;2.58;;;1.70;;
54452;SDS011;40363;52.270;10.546;2024-02-26T01:28:38;2.90;;;2.00;;
54452;SDS011;40363;52.270;10.546;2024-02-26T01:31:04;2.50;;;1.73;;
54452;SDS011;40363;52.270;10.546;2024-02-26T01:33:33;2.97;;;1.90;;
54452;SDS011;40363;52.270;10.546;2024-02-26T01:36:00;4.78;;;1.95;;
54452;SDS011;40363;52.270;10.546;2024-02-26T01:38:26;3.00;;;1.80;;
54452;SDS011;40363;52.270;10.546;2024-02-26T01:40:53;3.72;;;2.00;;
54452;SDS011;40363;52.270;10.546;2024-02-26T01:43:20;3.83;;;2.25;;
54452;SDS011;40363;52.270;10.546;2024-02-26T01:45:47;3.03;;;2.00;;
54452;SDS011;40363;52.270;10.546;2024-02-26T01:48:14;4.88;;;2.47;;
54452;SDS011;40363;52.270;10.546;2024-02-26T01:50:41;2.97;;;2.67;;
54452;SDS011;40363;52.270;10.546;2024-02-26T01:53:08;2.25;;;1.80;;
54452;SDS011;40363;52.270;10.546;2024-02-26T01:55:36;1.88;;;1.50;;
54452;SDS011;40363;52.270;10.546;2024-02-26T01:58:03;2.97;;;1.98;;
54452;SDS011;40363;52.270;10.546;2024-02-26T02:00:30;2.20;;;1.70;;
54452;SDS011;40363;52.270;10.546;2024-02-26T02:02:58;2.20;;;1.70;;
54452;SDS011;40363;52.270;10.546;2024-02-26T02:05:25;1.55;;;1.30;;
54452;SDS011;40363;52.270;10.546;2024-02-26T02:07:52;3.75;;;2.25;;
54452;SDS011;40363;52.270;10.546;2024-02-26T02:10:19;3.53;;;1.65;;
54452;SDS011;40363;52.270;10.546;2024-02-26T02:12:50;3.92;;;2.22;;
54452;SDS011;40363;52.270;10.546;2024-02-26T02:15:17;2.92;;;1.95;;
54452;SDS011;40363;52.270;10.546;2024-02-26T02:17:44;1.98;;;1.77;;
54452;SDS011;40363;52.270;10.546;2024-02-26T02:20:16;4.25;;;2.33;;
54452;SDS011;40363;52.270;10.546;2024-02-26T02:22:45;2.88;;;1.70;;
54452;SDS011;40363;52.270;10.546;2024-02-26T02:25:12;3.25;;;1.88;;
54452;SDS011;40363;52.270;10.546;2024-02-26T02:27:39;3.30;;;2.22;;
54452;SDS011;40363;52.270;10.546;2024-02-26T02:30:06;3.17;;;1.52;;
54452;SDS011;40363;52.270;10.546;2024-02-26T02:32:34;3.88;;;1.92;;
54452;SDS011;40363;52.270;10.546;2024-02-26T02:35:04;4.05;;;2.10;;
54452;SDS011;40363;52.270;10.546;2024-02-26T02:37:31;2.40;;;1.40;;
54452;SDS011;40363;52.270;10.546;2024-02-26T02:39:58;2.85;;;1.80;;
54452;SDS011;40363;52.270;10.546;2024-02-26T02:42:25;3.13;;;2.05;;
54452;SDS011;40363;52.270;10.546;2024-02-26T02:44:52;2.63;;;2.10;;
54452;SDS011;40363;52.270;10.546;2024-02-26T02:47:18;2.40;;;1.50;;
54452;SDS011;40363;52.270;10.546;2024-02-26T02:49:45;2.45;;;1.80;;
54452;SDS011;40363;52.270;10.546;2024-02-26T02:52:11;2.05;;;1.60;;
54452;SDS011;40363;52.270;10.546;2024-02-26T02:54:38;3.22;;;1.70;;
54452;SDS011;40363;52.270;10.546;2024-02-26T02:57:08;3.45;;;2.00;;
54452;SDS011;40363;52.270;10.546;2024-02-26T02:59:35;3.17;;;1.95;;
54452;SDS011;40363;52.270;10.546;2024-02-26T03:02:01;2.30;;;1.70;;
54452;SDS011;40363;52.270;10.546;2024-02-26T03:04:28;2.13;;;1.58;;
54452;SDS011;40363;52.270;10.546;2024-02-26T03:06:55;2.13;;;1.65;;
54452;SDS011;40363;52.270;10.546;2024-02-26T03:09:22;3.88;;;2.00;;
54452;SDS011;40363;52.270;10.546;2024-02-26T03:11:49;3.40;;;1.95;;
54452;SDS011;40363;52.270;10.546;2024-02-26T03:14:17;4.43;;;1.58;;
54452;SDS011;40363;52.270;10.546;2024-02-26T03:16:44;3.25;;;2.03;;
54452;SDS011;40363;52.270;10.546;2024-02-26T03:19:10;2.90;;;1.83;;
54452;SDS011;40363;52.270;10.546;2024-02-26T03:21:37;4.65;;;1.77;;
54452;SDS011;40363;52.270;10.546;2024-02-26T03:24:04;2.53;;;1.65;;
54452;SDS011;40363;52.270;10.546;2024-02-26T03:26:31;1.85;;;1.50;;
54452;SDS011;40363;52.270;10.546;2024-02-26T03:28:58;3.20;;;1.88;;
54452;SDS011;40363;52.270;10.546;2024-02-26T03:31:26;3.03;;;1.67;;
54452;SDS011;40363;52.270;10.546;2024-02-26T03:33:52;2.17;;;1.65;;
54452;SDS011;40363;52.270;10.546;2024-02-26T03:36:19;2.22;;;1.70;;
54452;SDS011;40363;52.270;10.546;2024-02-26T03:38:46;2.25;;;1.65;;
54452;SDS011;40363;52.270;10.546;2024-02-26T03:41:13;3.10;;;1.55;;
54452;SDS011;40363;52.270;10.546;2024-02-26T03:43:39;1.80;;;1.40;;
54452;SDS011;40363;52.270;10.546;2024-02-26T03:46:07;2.30;;;1.67;;
54452;SDS011;40363;52.270;10.546;2024-02-26T03:48:34;2.20;;;1.60;;
54452;SDS011;40363;52.270;10.546;2024-02-26T03:51:01;3.10;;;1.95;;
54452;SDS011;40363;52.270;10.546;2024-02-26T03:53:28;2.47;;;1.70;;
54452;SDS011;40363;52.270;10.546;2024-02-26T03:55:54;2.33;;;1.63;;
54452;SDS011;40363;52.270;10.546;2024-02-26T03:58:21;4.75;;;1.90;;
54452;SDS011;40363;52.270;10.546;2024-02-26T04:00:47;3.25;;;1.90;;
54452;SDS011;40363;52.270;10.546;2024-02-26T04:03:14;3.58;;;1.98;;
54452;SDS011;40363;52.270;10.546;2024-02-26T04:05:42;3.33;;;2.22;;
54452;SDS011;40363;52.270;10.546;2024-02-26T04:08:08;3.05;;;2.13;;
54452;SDS011;40363;52.270;10.546;2024-02-26T04:10:35;4.18;;;2.10;;
54452;SDS011;40363;52.270;10.546;2024-02-26T04:13:03;4.60;;;2.45;;
54452;SDS011;40363;52.270;10.546;2024-02-26T04:15:30;2.72;;;2.13;;
54452;SDS011;40363;52.270;10.546;2024-02-26T04:17:57;2.65;;;1.90;;
54452;SDS011;40363;52.270;10.546;2024-02-26T04:20:23;4.05;;;1.92;;
54452;SDS011;40363;52.270;10.546;2024-02-26T04:22:51;2.28;;;1.63;;
54452;SDS011;40363;52.270;10.546;2024-02-26T04:25:18;2.67;;;2.10;;
54452;SDS011;40363;52.270;10.546;2024-02-26T04:27:44;4.13;;;2.65;;
54452;SDS011;40363;52.270;10.546;2024-02-26T04:30:11;2.97;;;2.55;;
54452;SDS011;40363;52.270;10.546;2024-02-26T04:32:38;6.35;;;2.97;;
54452;SDS011;40363;52.270;10.546;2024-02-26T04:35:05;3.67;;;2.50;;
54452;SDS011;40363;52.270;10.546;2024-02-26T04:37:32;3.78;;;2.30;;
54452;SDS011;40363;52.270;10.546;2024-02-26T04:40:00;3.67;;;2.75;;
54452;SDS011;40363;52.270;10.546;2024-02-26T04:42:27;3.65;;;2.50;;
54452;SDS011;40363;52.270;10.546;2024-02-26T04:44:54;3.20;;;2.72;;
54452;SDS011;40363;52.270;10.546;2024-02-26T04:47:21;3.78;;;2.65;;
54452;SDS011;40363;52.270;10.546;2024-02-26T04:49:47;4.40;;;3.00;;
54452;SDS011;40363;52.270;10.546;2024-02-26T04:52:15;3.63;;;2.60;;
54452;SDS011;40363;52.270;10.546;2024-02-26T04:54:41;5.45;;;3.20;;
54452;SDS011;40363;52.270;10.546;2024-02-26T04:57:09;4.45;;;3.00;;
54452;SDS011;40363;52.270;10.546;2024-02-26T04:59:36;5.22;;;3.17;;
54452;SDS011;40363;52.270;10.546;2024-02-26T05:02:02;5.28;;;3.53;;
54452;SDS011;40363;52.270;10.546;2024-02-26T05:04:29;6.47;;;3.25;;
54452;SDS011;40363;52.270;10.546;2024-02-26T05:06:56;5.10;;;3.15;;
54452;SDS011;40363;52.270;10.546;2024-02-26T05:09:23;4.45;;;3.13;;
54452;SDS011;40363;52.270;10.546;2024-02-26T05:11:49;4.13;;;3.00;;
54452;SDS011;40363;52.270;10.546;2024-02-26T05:14:17;6.03;;;3.33;;
54452;SDS011;40363;52.270;10.546;2024-02-26T05:16:44;5.70;;;2.97;;
54452;SDS011;40363;52.270;10.546;2024-02-26T05:19:10;4.57;;;3.00;;
54452;SDS011;40363;52.270;10.546;2024-02-26T05:21:37;5.65;;;2.92;;
54452;SDS011;40363;52.270;10.546;2024-02-26T05:24:05;5.18;;;2.50;;
54452;SDS011;40363;52.270;10.546;2024-02-26T05:26:32;3.67;;;2.55;;
54452;SDS011;40363;52.270;10.546;2024-02-26T05:28:58;3.60;;;2.83;;
54452;SDS011;40363;52.270;10.546;2024-02-26T05:31:26;3.80;;;3.10;;
54452;SDS011;40363;52.270;10.546;2024-02-26T05:33:54;4.05;;;3.10;;
54452;SDS011;40363;52.270;10.546;2024-02-26T05:36:21;5.97;;;3.90;;
54452;SDS011;40363;52.270;10.546;2024-02-26T05:38:48;5.03;;;3.13;;
54452;SDS011;40363;52.270;10.546;2024-02-26T05:41:15;5.22;;;3.15;;
54452;SDS011;40363;52.270;10.546;2024-02-26T05:43:41;5.45;;;3.65;;
54452;SDS011;40363;52.270;10.546;2024-02-26T05:46:08;7.00;;;4.40;;
54452;SDS011;40363;52.270;10.546;2024-02-26T05:48:36;4.97;;;3.83;;
54452;SDS011;40363;52.270;10.546;2024-02-26T05:51:02;6.07;;;3.75;;
54452;SDS011;40363;52.270;10.546;2024-02-26T05:53:30;6.45;;;4.30;;
54452;SDS011;40363;52.270;10.546;2024-02-26T05:55:57;5.00;;;4.40;;
54452;SDS011;40363;52.270;10.546;2024-02-26T05:58:24;5.90;;;4.47;;
54452;SDS011;40363;52.270;10.546;2024-02-26T06:00:50;5.53;;;4.18;;
54452;SDS011;40363;52.270;10.546;2024-02-26T06:03:17;7.18;;;4.50;;
54452;SDS011;40363;52.270;10.546;2024-02-26T06:05:44;5.38;;;4.35;;
54452;SDS011;40363;52.270;10.546;2024-02-26T06:08:12;6.05;;;4.32;;
54452;SDS011;40363;52.270;10.546;2024-02-26T06:10:38;6.35;;;4.35;;
54452;SDS011;40363;52.270;10.546;2024-02-26T06:13:05;5.55;;;4.05;;
54452;SDS011;40363;52.270;10.546;2024-02-26T06:15:32;6.68;;;4.47;;
54452;SDS011;40363;52.270;10.546;2024-02-26T06:17:58;6.80;;;4.32;;
54452;SDS011;40363;52.270;10.546;2024-02-26T06:20:25;6.43;;;4.60;;
54452;SDS011;40363;52.270;10.546;2024-02-26T06:22:53;9.63;;;4.57;;
54452;SDS011;40363;52.270;10.546;2024-02-26T06:25:19;6.60;;;4.60;;
54452;SDS011;40363;52.270;10.546;2024-02-26T06:27:46;8.60;;;4.68;;
54452;SDS011;40363;52.270;10.546;2024-02-26T06:30:12;5.55;;;4.05;;
54452;SDS011;40363;52.270;10.546;2024-02-26T06:32:39;5.70;;;4.50;;
54452;SDS011;40363;52.270;10.546;2024-02-26T06:35:06;8.05;;;4.60;;
54452;SDS011;40363;52.270;10.546;2024-02-26T06:37:35;7.00;;;4.57;;
54452;SDS011;40363;52.270;10.546;2024-02-26T06:40:04;5.38;;;4.32;;
54452;SDS011;40363;52.270;10.546;2024-02-26T06:42:31;8.85;;;5.40;;
54452;SDS011;40363;52.270;10.546;2024-02-26T06:44:58;7.32;;;4.85;;
54452;SDS011;40363;52.270;10.546;2024-02-26T06:47:25;7.40;;;5.43;;
54452;SDS011;40363;52.270;10.546;2024-02-26T06:49:52;6.82;;;5.40;;
54452;SDS011;40363;52.270;10.546;2024-02-26T06:52:18;11.13;;;6.07;;
54452;SDS011;40363;52.270;10.546;2024-02-26T06:54:45;8.25;;;5.05;;
54452;SDS011;40363;52.270;10.546;2024-02-26T06:57:14;7.40;;;4.65;;
54452;SDS011;40363;52.270;10.546;2024-02-26T06:59:41;5.95;;;4.57;;
54452;SDS011;40363;52.270;10.546;2024-02-26T07:02:11;5.55;;;4.22;;
54452;SDS011;40363;52.270;10.546;2024-02-26T07:04:37;6.43;;;4.38;;
54452;SDS011;40363;52.270;10.546;2024-02-26T07:07:04;7.72;;;4.80;;
54452;SDS011;40363;52.270;10.546;2024-02-26T07:09:30;5.43;;;4.10;;
54452;SDS011;40363;52.270;10.546;2024-02-26T07:11:57;5.60;;;4.78;;
54452;SDS011;40363;52.270;10.546;2024-02-26T07:14:25;7.93;;;4.18;;
54452;SDS011;40363;52.270;10.546;2024-02-26T07:16:51;7.43;;;4.65;;
54452;SDS011;40363;52.270;10.546;2024-02-26T07:19:18;5.60;;;4.32;;
54452;SDS011;40363;52.270;10.546;2024-02-26T07:21:44;6.00;;;4.13;;
54452;SDS011;40363;52.270;10.546;2024-02-26T07:24:11;7.28;;;4.90;;
54452;SDS011;40363;52.270;10.546;2024-02-26T07:26:38;8.07;;;5.00;;
54452;SDS011;40363;52.270;10.546;2024-02-26T07:29:04;6.72;;;4.50;;
54452;SDS011;40363;52.270;10.546;2024-02-26T07:31:32;8.73;;;5.07;;
54452;SDS011;40363;52.270;10.546;2024-02-26T07:33:58;6.65;;;4.00;;
54452;SDS011;40363;52.270;10.546;2024-02-26T07:36:25;5.88;;;3.88;;
54452;SDS011;40363;52.270;10.546;2024-02-26T07:38:52;4.88;;;3.78;;
54452;SDS011;40363;52.270;10.546;2024-02-26T07:41:19;7.13;;;4.38;;
54452;SDS011;40363;52.270;10.546;2024-02-26T07:43:46;4.57;;;3.97;;
54452;SDS011;40363;52.270;10.546;2024-02-26T07:46:12;5.80;;;3.88;;
54452;SDS011;40363;52.270;10.546;2024-02-26T07:48:40;6.78;;;4.55;;
54452;SDS011;40363;52.270;10.546;2024-02-26T07:51:07;8.40;;;4.47;;
54452;SDS011;40363;52.270;10.546;2024-02-26T07:53:33;9.80;;;4.55;;
54452;SDS011;40363;52.270;10.546;2024-02-26T07:56:00;8.35;;;5.07;;
54452;SDS011;40363;52.270;10.546;2024-02-26T07:58:28;5.47;;;4.55;;
54452;SDS011;40363;52.270;10.546;2024-02-26T08:00:54;7.07;;;4.38;;
54452;SDS011;40363;52.270;10.546;2024-02-26T08:03:21;4.97;;;3.90;;
54452;SDS011;40363;52.270;10.546;2024-02-26T08:05:49;8.35;;;4.03;;
54452;SDS011;40363;52.270;10.546;2024-02-26T08:08:16;4.15;;;3.10;;
54452;SDS011;40363;52.270;10.546;2024-02-26T08:10:43;4.15;;;3.03;;
54452;SDS011;40363;52.270;10.546;2024-02-26T08:13:10;7.03;;;4.10;;
54452;SDS011;40363;52.270;10.546;2024-02-26T08:15:36;5.53;;;3.28;;
54452;SDS011;40363;52.270;10.546;2024-02-26T08:18:03;6.88;;;3.55;;
54452;SDS011;40363;52.270;10.546;2024-02-26T08:20:30;3.97;;;2.92;;
54452;SDS011;40363;52.270;10.546;2024-02-26T08:22:59;4.60;;;3.20;;
54452;SDS011;40363;52.270;10.546;2024-02-26T08:25:25;3.10;;;2.60;;
54452;SDS011;40363;52.270;10.546;2024-02-26T08:27:52;8.18;;;3.38;;
54452;SDS011;40363;52.270;10.546;2024-02-26T08:30:18;5.82;;;2.90;;
54452;SDS011;40363;52.270;10.546;2024-02-26T08:32:45;4.07;;;3.00;;
54452;SDS011;40363;52.270;10.546;2024-02-26T08:35:12;3.90;;;2.75;;
54452;SDS011;40363;52.270;10.546;2024-02-26T08:37:38;3.08;;;2.15;;
54452;SDS011;40363;52.270;10.546;2024-02-26T08:40:07;4.90;;;2.60;;
54452;SDS011;40363;52.270;10.546;2024-02-26T08:42:34;5.75;;;2.85;;
54452;SDS011;40363;52.270;10.546;2024-02-26T08:45:01;4.68;;;2.08;;
54452;SDS011;40363;52.270;10.546;2024-02-26T08:47:28;3.28;;;2.42;;
54452;SDS011;40363;52.270;10.546;2024-02-26T08:49:54;7.47;;;2.25;;
54452;SDS011;40363;52.270;10.546;2024-02-26T08:52:21;2.83;;;2.35;;
54452;SDS011;40363;52.270;10.546;2024-02-26T08:54:48;4.20;;;2.63;;
54452;SDS011;40363;52.270;10.546;2024-02-26T08:57:16;3.85;;;2.65;;
54452;SDS011;40363;52.270;10.546;2024-02-26T08:59:42;3.20;;;2.33;;
54452;SDS011;40363;52.270;10.546;2024-02-26T09:02:09;7.78;;;2.58;;
54452;SDS011;40363;52.270;10.546;2024-02-26T09:04:35;4.18;;;2.63;;
54452;SDS011;40363;52.270;10.546;2024-02-26T09:07:02;3.08;;;2.05;;
54452;SDS011;40363;52.270;10.546;2024-02-26T09:09:29;4.72;;;2.22;;
54452;SDS011;40363;52.270;10.546;2024-02-26T09:11:55;5.18;;;2.60;;
54452;SDS011;40363;52.270;10.546;2024-02-26T09:14:23;3.35;;;2.28;;
54452;SDS011;40363;52.270;10.546;2024-02-26T09:16:50;3.13;;;2.08;;
54452;SDS011;40363;52.270;10.546;2024-02-26T09:19:17;3.35;;;1.88;;
54452;SDS011;40363;52.270;10.546;2024-02-26T09:21:44;3.72;;;1.98;;
54452;SDS011;40363;52.270;10.546;2024-02-26T09:24:11;3.47;;;2.10;;
54452;SDS011;40363;52.270;10.546;2024-02-26T09:26:37;2.60;;;2.03;;
54452;SDS011;40363;52.270;10.546;2024-02-26T09:29:04;5.10;;;1.70;;
54452;SDS011;40363;52.270;10.546;2024-02-26T09:31:32;3.80;;;2.13;;
54452;SDS011;40363;52.270;10.546;2024-02-26T09:34:00;4.10;;;2.15;;
54452;SDS011;40363;52.270;10.546;2024-02-26T09:36:26;3.95;;;2.38;;
54452;SDS011;40363;52.270;10.546;2024-02-26T09:38:53;2.70;;;2.08;;
54452;SDS011;40363;52.270;10.546;2024-02-26T09:41:19;3.67;;;2.72;;
54452;SDS011;40363;52.270;10.546;2024-02-26T09:43:46;4.03;;;2.35;;
54452;SDS011;40363;52.270;10.546;2024-02-26T09:46:16;5.15;;;2.50;;
54452;SDS011;40363;52.270;10.546;2024-02-26T09:48:46;3.92;;;2.60;;
54452;SDS011;40363;52.270;10.546;2024-02-26T09:51:13;4.13;;;2.40;;
54452;SDS011;40363;52.270;10.546;2024-02-26T09:53:41;3.15;;;2.40;;
54452;SDS011;40363;52.270;10.546;2024-02-26T09:56:10;5.95;;;2.17;;
54452;SDS011;40363;52.270;10.546;2024-02-26T09:58:37;3.55;;;2.15;;
54452;SDS011;40363;52.270;10.546;2024-02-26T10:01:06;3.05;;;2.45;;
54452;SDS011;40363;52.270;10.546;2024-02-26T10:03:38;5.15;;;2.40;;
54452;SDS011;40363;52.270;10.546;2024-02-26T10:06:07;2.90;;;1.95;;
54452;SDS011;40363;52.270;10.546;2024-02-26T10:08:34;2.78;;;2.13;;
54452;SDS011;40363;52.270;10.546;2024-02-26T10:11:02;6.68;;;2.63;;
54452;SDS011;40363;52.270;10.546;2024-02-26T10:13:28;4.03;;;2.50;;
54452;SDS011;40363;52.270;10.546;2024-02-26T10:15:55;3.55;;;1.90;;
54452;SDS011;40363;52.270;10.546;2024-02-26T10:18:22;3.38;;;1.90;;
54452;SDS011;40363;52.270;10.546;2024-02-26T10:20:58;3.85;;;2.40;;
54452;SDS011;40363;52.270;10.546;2024-02-26T10:23:26;3.13;;;1.95;;
54452;SDS011;40363;52.270;10.546;2024-02-26T10:25:53;5.03;;;2.67;;
54452;SDS011;40363;52.270;10.546;2024-02-26T10:28:20;5.35;;;2.90;;
54452;SDS011;40363;52.270;10.546;2024-02-26T10:30:47;4.07;;;2.47;;
54452;SDS011;40363;52.270;10.546;2024-02-26T10:33:15;3.90;;;2.58;;
54452;SDS011;40363;52.270;10.546;2024-02-26T10:35:47;5.97;;;3.05;;
54452;SDS011;40363;52.270;10.546;2024-02-26T10:38:17;4.63;;;3.20;;
54452;SDS011;40363;52.270;10.546;2024-02-26T10:40:49;4.63;;;2.83;;
54452;SDS011;40363;52.270;10.546;2024-02-26T10:43:17;5.00;;;2.92;;
54452;SDS011;40363;52.270;10.546;2024-02-26T10:45:45;4.50;;;2.45;;
54452;SDS011;40363;52.270;10.546;2024-02-26T10:48:13;5.15;;;2.63;;
54452;SDS011;40363;52.270;10.546;2024-02-26T10:50:47;4.93;;;3.33;;
54452;SDS011;40363;52.270;10.546;2024-02-26T10:53:16;4.63;;;2.63;;
54452;SDS011;40363;52.270;10.546;2024-02-26T10:55:52;4.88;;;2.90;;
54452;SDS011;40363;52.270;10.546;2024-02-26T10:58:25;5.20;;;3.60;;
54452;SDS011;40363;52.270;10.546;2024-02-26T11:00:54;6.78;;;2.78;;
54452;SDS011;40363;52.270;10.546;2024-02-26T11:03:25;4.70;;;3.10;;
54452;SDS011;40363;52.270;10.546;2024-02-26T11:05:57;6.78;;;4.10;;
54452;SDS011;40363;52.270;10.546;2024-02-26T11:08:27;4.00;;;2.67;;
54452;SDS011;40363;52.270;10.546;2024-02-26T11:10:59;8.10;;;3.58;;
54452;SDS011;40363;52.270;10.546;2024-02-26T11:13:28;6.43;;;3.70;;
54452;SDS011;40363;52.270;10.546;2024-02-26T11:15:57;6.18;;;3.20;;
54452;SDS011;40363;52.270;10.546;2024-02-26T11:18:27;5.15;;;2.83;;
54452;SDS011;40363;52.270;10.546;2024-02-26T11:20:56;7.13;;;3.38;;
54452;SDS011;40363;52.270;10.546;2024-02-26T11:23:25;6.72;;;3.80;;
54452;SDS011;40363;52.270;10.546;2024-02-26T11:25:57;8.07;;;3.30;;
54452;SDS011;40363;52.270;10.546;2024-02-26T11:28:28;6.50;;;3.45;;
54452;SDS011;40363;52.270;10.546;2024-02-26T11:31:01;6.65;;;3.60;;
54452;SDS011;40363;52.270;10.546;2024-02-26T11:33:34;6.57;;;2.90;;
54452;SDS011;40363;52.270;10.546;2024-02-26T11:36:04;9.60;;;3.55;;
54452;SDS011;40363;52.270;10.546;2024-02-26T11:38:39;4.75;;;2.95;;
54452;SDS011;40363;52.270;10.546;2024-02-26T11:41:08;5.80;;;3.53;;
54452;SDS011;40363;52.270;10.546;2024-02-26T11:43:57;7.43;;;3.58;;
54452;SDS011;40363;52.270;10.546;2024-02-26T11:46:26;4.60;;;3.40;;
54452;SDS011;40363;52.270;10.546;2024-02-26T11:48:58;9.52;;;4.32;;
54452;SDS011;40363;52.270;10.546;2024-02-26T11:51:26;5.40;;;3.30;;
54452;SDS011;40363;52.270;10.546;2024-02-26T11:53:54;5.40;;;3.20;;
54452;SDS011;40363;52.270;10.546;2024-02-26T11:56:25;6.32;;;3.30;;
54452;SDS011;40363;52.270;10.546;2024-02-26T11:58:57;8.13;;;3.40;;
54452;SDS011;40363;52.270;10.546;2024-02-26T12:04:24;5.22;;;3.35;;
54452;SDS011;40363;52.270;10.546;2024-02-26T12:06:55;7.05;;;3.40;;
54452;SDS011;40363;52.270;10.546;2024-02-26T12:09:35;8.88;;;3.92;;
54452;SDS011;40363;52.270;10.546;2024-02-26T12:12:07;6.00;;;3.90;;
54452;SDS011;40363;52.270;10.546;2024-02-26T12:14:38;6.55;;;3.42;;
54452;SDS011;40363;52.270;10.546;2024-02-26T12:17:06;4.95;;;3.28;;
54452;SDS011;40363;52.270;10.546;2024-02-26T12:19:34;6.63;;;3.33;;
54452;SDS011;40363;52.270;10.546;2024-02-26T12:22:02;9.60;;;3.90;;
54452;SDS011;40363;52.270;10.546;2024-02-26T12:24:30;8.10;;;4.07;;
54452;SDS011;40363;52.270;10.546;2024-02-26T12:26:57;10.15;;;4.18;;
54452;SDS011;40363;52.270;10.546;2024-02-26T12:29:26;11.25;;;4.75;;
54452;SDS011;40363;52.270;10.546;2024-02-26T12:31:53;6.45;;;4.18;;
54452;SDS011;40363;52.270;10.546;2024-02-26T12:34:20;7.13;;;4.38;;
54452;SDS011;40363;52.270;10.546;2024-02-26T12:36:53;6.82;;;4.07;;
54452;SDS011;40363;52.270;10.546;2024-02-26T12:39:35;6.32;;;3.88;;
54452;SDS011;40363;52.270;10.546;2024-02-26T12:42:11;9.50;;;5.82;;
54452;SDS011;40363;52.270;10.546;2024-02-26T12:44:41;8.63;;;5.05;;
54452;SDS011;40363;52.270;10.546;2024-02-26T12:47:20;11.23;;;4.65;;
54452;SDS011;40363;52.270;10.546;2024-02-26T12:49:52;10.95;;;4.78;;
54452;SDS011;40363;52.270;10.546;2024-02-26T12:52:28;7.25;;;4.28;;
54452;SDS011;40363;52.270;10.546;2024-02-26T12:55:01;7.30;;;4.57;;
54452;SDS011;40363;52.270;10.546;2024-02-26T12:57:34;7.10;;;4.43;;
54452;SDS011;40363;52.270;10.546;2024-02-26T13:00:13;7.68;;;4.45;;
54452;SDS011;40363;52.270;10.546;2024-02-26T13:02:44;7.20;;;4.20;;
54452;SDS011;40363;52.270;10.546;2024-02-26T13:05:17;8.18;;;5.38;;
54452;SDS011;40363;52.270;10.546;2024-02-26T13:07:48;8.48;;;5.07;;
54452;SDS011;40363;52.270;10.546;2024-02-26T13:10:16;10.82;;;4.95;;
54452;SDS011;40363;52.270;10.546;2024-02-26T13:12:51;7.70;;;5.18;;
54452;SDS011;40363;52.270;10.546;2024-02-26T13:15:45;8.13;;;4.90;;
54452;SDS011;40363;52.270;10.546;2024-02-26T13:18:17;10.07;;;6.00;;
54452;SDS011;40363;52.270;10.546;2024-02-26T13:20:45;9.50;;;5.03;;
54452;SDS011;40363;52.270;10.546;2024-02-26T13:23:12;8.82;;;5.35;;
54452;SDS011;40363;52.270;10.546;2024-02-26T13:25:43;11.20;;;5.82;;
54452;SDS011;40363;52.270;10.546;2024-02-26T13:33:36;8.73;;;5.43;;
54452;SDS011;40363;52.270;10.546;2024-02-26T13:36:06;9.68;;;5.35;;
54452;SDS011;40363;52.270;10.546;2024-02-26T13:38:34;11.43;;;5.25;;
54452;SDS011;40363;52.270;10.546;2024-02-26T13:41:00;9.68;;;5.15;;
54452;SDS011;40363;52.270;10.546;2024-02-26T13:43:27;8.00;;;5.05;;
54452;SDS011;40363;52.270;10.546;2024-02-26T13:45:54;12.27;;;5.45;;
54452;SDS011;40363;52.270;10.546;2024-02-26T13:48:23;7.05;;;4.97;;
54452;SDS011;40363;52.270;10.546;2024-02-26T13:50:50;7.28;;;4.00;;
54452;SDS011;40363;52.270;10.546;2024-02-26T13:53:16;10.07;;;4.97;;
54452;SDS011;40363;52.270;10.546;2024-02-26T13:55:45;9.82;;;4.63;;
54452;SDS011;40363;52.270;10.546;2024-02-26T13:58:12;9.10;;;5.82;;
54452;SDS011;40363;52.270;10.546;2024-02-26T14:00:40;7.32;;;4.28;;
54452;SDS011;40363;52.270;10.546;2024-02-26T14:04:29;9.27;;;4.60;;
54452;SDS011;40363;52.270;10.546;2024-02-26T14:06:24;14.07;;;6.10;;
54452;SDS011;40363;52.270;10.546;2024-02-26T14:08:51;10.70;;;5.43;;
54452;SDS011;40363;52.270;10.546;2024-02-26T14:11:17;8.50;;;5.43;;
54452;SDS011;40363;52.270;10.546;2024-02-26T14:13:44;8.55;;;5.55;;
54452;SDS011;40363;52.270;10.546;2024-02-26T14:16:12;10.68;;;5.25;;
54452;SDS011;40363;52.270;10.546;2024-02-26T14:18:39;11.35;;;5.72;;
54452;SDS011;40363;52.270;10.546;2024-02-26T14:21:09;9.18;;;5.13;;
54452;SDS011;40363;52.270;10.546;2024-02-26T14:23:37;7.50;;;5.25;;
54452;SDS011;40363;52.270;10.546;2024-02-26T14:26:04;9.57;;;4.85;;
54452;SDS011;40363;52.270;10.546;2024-02-26T14:28:31;9.80;;;5.38;;
54452;SDS011;40363;52.270;10.546;2024-02-26T14:30:59;10.00;;;5.35;;
54452;SDS011;40363;52.270;10.546;2024-02-26T14:33:26;8.90;;;5.05;;
54452;SDS011;40363;52.270;10.546;2024-02-26T14:35:52;9.45;;;5.60;;
54452;SDS011;40363;52.270;10.546;2024-02-26T14:38:19;8.77;;;5.55;;
54452;SDS011;40363;52.270;10.546;2024-02-26T14:40:47;9.75;;;5.85;;
54452;SDS011;40363;52.270;10.546;2024-02-26T14:43:15;7.85;;;5.22;;
54452;SDS011;40363;52.270;10.546;2024-02-26T14:45:42;10.63;;;6.28;;